createdAt,value
2017-07-05T00:00:40.115Z,18.77
2017-07-05T00:01:40.694Z,18.81
2017-07-05T00:02:41.273Z,18.75
2017-07-05T00:03:41.851Z,18.84
2017-07-05T00:04:42.441Z,18.80
2017-07-05T00:05:43.021Z,18.88
2017-07-05T00:06:43.599Z,18.98
2017-07-05T00:07:44.179Z,18.93
2017-07-05T00:08:44.757Z,19.09
2017-07-05T00:09:45.335Z,18.92
2017-07-05T00:10:45.913Z,18.63
2017-07-05T00:11:46.490Z,18.53
2017-07-05T00:12:47.067Z,18.58
2017-07-05T00:13:47.646Z,18.47
2017-07-05T00:14:48.225Z,18.56
2017-07-05T00:15:48.804Z,18.71
2017-07-05T00:16:49.384Z,18.60
2017-07-05T00:17:49.962Z,18.47
2017-07-05T00:18:50.547Z,18.52
2017-07-05T00:19:51.120Z,18.58
2017-07-05T00:20:51.699Z,18.56
2017-07-05T00:21:52.288Z,18.58
2017-07-05T00:22:52.865Z,18.58
2017-07-05T00:23:53.446Z,18.70
2017-07-05T00:24:54.023Z,18.75
2017-07-05T00:25:54.601Z,18.52
2017-07-05T00:26:55.179Z,18.59
2017-07-05T00:27:55.757Z,18.50
2017-07-05T00:28:56.336Z,18.26
2017-07-05T00:29:56.926Z,18.34
2017-07-05T00:30:57.504Z,18.41
2017-07-05T00:31:58.082Z,18.37
2017-07-05T00:32:58.659Z,18.29
2017-07-05T00:33:59.237Z,18.26
2017-07-05T00:34:59.815Z,18.33
2017-07-05T00:36:00.394Z,18.44
2017-07-05T00:37:00.972Z,18.26
2017-07-05T00:38:01.552Z,18.28
2017-07-05T00:39:02.130Z,18.10
2017-07-05T00:40:02.709Z,18.08
2017-07-05T00:41:03.287Z,18.11
2017-07-05T00:42:03.865Z,18.15
2017-07-05T00:43:04.443Z,18.19
2017-07-05T00:44:05.031Z,18.25
2017-07-05T00:45:05.610Z,18.15
2017-07-05T00:46:06.189Z,18.11
2017-07-05T00:47:06.765Z,18.11
2017-07-05T00:48:07.343Z,18.05
2017-07-05T00:49:07.921Z,18.01
2017-07-05T00:50:08.500Z,17.95
2017-07-05T00:51:09.079Z,17.92
2017-07-05T00:52:09.658Z,17.89
2017-07-05T00:53:10.241Z,17.86
2017-07-05T00:54:10.817Z,17.79
2017-07-05T00:55:11.400Z,17.80
2017-07-05T00:56:11.972Z,17.85
2017-07-05T00:57:12.550Z,17.86
2017-07-05T00:58:13.127Z,17.79
2017-07-05T00:59:13.705Z,17.82
2017-07-05T01:00:14.282Z,17.79
2017-07-05T01:01:14.859Z,17.72
2017-07-05T01:02:15.438Z,17.68
2017-07-05T01:03:16.017Z,17.59
2017-07-05T01:04:16.595Z,17.54
2017-07-05T01:05:17.175Z,17.60
2017-07-05T01:06:17.752Z,17.98
2017-07-05T01:07:18.330Z,18.07
2017-07-05T01:08:18.918Z,18.07
2017-07-05T01:09:19.498Z,17.80
2017-07-05T01:10:20.078Z,17.57
2017-07-05T01:11:20.656Z,17.68
2017-07-05T01:12:21.233Z,17.65
2017-07-05T01:13:21.811Z,17.87
2017-07-05T01:14:22.390Z,17.80
2017-07-05T01:15:22.971Z,18.01
2017-07-05T01:16:23.548Z,17.87
2017-07-05T01:17:24.133Z,17.82
2017-07-05T01:18:24.718Z,17.68
2017-07-05T01:19:25.296Z,17.56
2017-07-05T01:20:25.876Z,17.34
2017-07-05T01:21:26.453Z,17.23
2017-07-05T01:22:27.031Z,17.08
2017-07-05T01:23:27.608Z,16.96
2017-07-05T01:24:28.186Z,16.96
2017-07-05T01:25:28.763Z,16.93
2017-07-05T01:26:29.341Z,16.87
2017-07-05T01:27:29.918Z,16.79
2017-07-05T01:28:30.497Z,16.89
2017-07-05T01:29:31.074Z,16.76
2017-07-05T01:30:31.654Z,16.84
2017-07-05T01:31:32.237Z,16.84
2017-07-05T01:32:32.809Z,16.90
2017-07-05T01:33:33.388Z,16.74
2017-07-05T01:34:33.966Z,16.99
2017-07-05T01:35:34.542Z,16.90
2017-07-05T01:36:35.121Z,17.16
2017-07-05T01:37:35.698Z,17.05
2017-07-05T01:38:36.279Z,17.15
2017-07-05T01:39:36.858Z,17.22
2017-07-05T01:40:37.436Z,17.14
2017-07-05T01:41:38.025Z,17.08
2017-07-05T01:42:38.604Z,17.05
2017-07-05T01:43:39.184Z,17.16
2017-07-05T01:44:39.775Z,17.22
2017-07-05T01:45:40.352Z,17.09
2017-07-05T01:46:40.935Z,17.26
2017-07-05T01:47:41.509Z,17.09
2017-07-05T01:48:42.092Z,17.20
2017-07-05T01:49:42.672Z,17.29
2017-07-05T01:50:43.241Z,17.14
2017-07-05T01:51:43.817Z,17.04
2017-07-05T01:52:44.395Z,17.02
2017-07-05T01:53:44.973Z,16.83
2017-07-05T01:54:45.551Z,16.83
2017-07-05T01:55:46.130Z,16.93
2017-07-05T01:56:46.706Z,16.69
2017-07-05T01:57:47.285Z,16.57
2017-07-05T01:58:47.862Z,16.50
2017-07-05T01:59:48.439Z,16.68
2017-07-05T02:00:49.016Z,16.83
2017-07-05T02:01:49.606Z,16.57
2017-07-05T02:02:50.185Z,16.50
2017-07-05T02:03:50.762Z,16.49
2017-07-05T02:04:51.338Z,16.41
2017-07-05T02:05:51.915Z,16.53
2017-07-05T02:06:52.492Z,16.57
2017-07-05T02:07:53.070Z,16.50
2017-07-05T02:08:53.648Z,16.43
2017-07-05T02:09:54.236Z,16.43
2017-07-05T02:10:54.813Z,16.53
2017-07-05T02:11:55.389Z,16.49
2017-07-05T02:12:55.966Z,16.42
2017-07-05T02:13:56.543Z,16.39
2017-07-05T02:14:57.121Z,16.57
2017-07-05T02:15:57.899Z,16.76
2017-07-05T02:16:58.475Z,16.75
2017-07-05T02:17:59.053Z,16.81
2017-07-05T02:18:59.631Z,16.97
2017-07-05T02:20:00.205Z,16.83
2017-07-05T02:21:00.782Z,16.71
2017-07-05T02:22:01.358Z,16.58
2017-07-05T02:23:01.936Z,16.38
2017-07-05T02:24:02.513Z,16.39
2017-07-05T02:25:03.093Z,16.36
2017-07-05T02:26:03.669Z,16.42
2017-07-05T02:27:04.248Z,16.53
2017-07-05T02:28:04.826Z,16.47
2017-07-05T02:29:05.402Z,16.41
2017-07-05T02:30:05.978Z,16.51
2017-07-05T02:31:06.556Z,16.66
2017-07-05T02:32:07.134Z,16.65
2017-07-05T02:33:07.722Z,16.43
2017-07-05T02:34:08.299Z,16.32
2017-07-05T02:35:08.875Z,16.13
2017-07-05T02:36:09.451Z,16.17
2017-07-05T02:37:10.027Z,16.04
2017-07-05T02:38:10.605Z,16.02
2017-07-05T02:39:11.181Z,16.08
2017-07-05T02:40:11.759Z,16.08
2017-07-05T02:41:12.337Z,16.08
2017-07-05T02:42:12.915Z,16.15
2017-07-05T02:43:13.502Z,15.98
2017-07-05T02:44:14.078Z,16.17
2017-07-05T02:45:14.657Z,16.21
2017-07-05T02:46:15.235Z,16.28
2017-07-05T02:47:15.813Z,16.17
2017-07-05T02:48:16.392Z,16.24
2017-07-05T02:49:16.969Z,16.31
2017-07-05T02:50:17.558Z,16.26
2017-07-05T02:51:18.136Z,16.35
2017-07-05T02:52:18.712Z,16.23
2017-07-05T02:53:19.300Z,16.26
2017-07-05T02:54:19.878Z,16.31
2017-07-05T02:55:20.457Z,16.29
2017-07-05T02:56:21.035Z,16.35
2017-07-05T02:57:21.610Z,16.39
2017-07-05T02:58:22.187Z,16.43
2017-07-05T02:59:22.764Z,16.38
2017-07-05T03:00:23.340Z,16.36
2017-07-05T03:01:23.917Z,16.43
2017-07-05T03:02:24.496Z,16.20
2017-07-05T03:03:25.073Z,16.41
2017-07-05T03:04:25.650Z,16.31
2017-07-05T03:05:26.230Z,16.28
2017-07-05T03:06:26.806Z,16.09
2017-07-05T03:07:27.383Z,16.16
2017-07-05T03:08:27.961Z,16.13
2017-07-05T03:09:28.540Z,16.23
2017-07-05T03:10:29.114Z,16.32
2017-07-05T03:11:29.693Z,16.26
2017-07-05T03:12:30.271Z,16.21
2017-07-05T03:13:30.848Z,16.21
2017-07-05T03:14:31.425Z,16.31
2017-07-05T03:15:32.000Z,16.17
2017-07-05T03:16:32.578Z,16.15
2017-07-05T03:17:33.154Z,16.24
2017-07-05T03:18:33.730Z,16.15
2017-07-05T03:19:34.306Z,16.29
2017-07-05T03:20:34.882Z,16.26
2017-07-05T03:21:35.460Z,16.33
2017-07-05T03:22:36.037Z,16.21
2017-07-05T03:23:36.615Z,16.31
2017-07-05T03:24:37.192Z,16.49
2017-07-05T03:25:37.782Z,16.33
2017-07-05T03:26:38.361Z,16.10
2017-07-05T03:27:38.938Z,16.00
2017-07-05T03:28:39.517Z,16.09
2017-07-05T03:29:40.093Z,16.23
2017-07-05T03:30:40.671Z,16.38
2017-07-05T03:31:41.248Z,16.46
2017-07-05T03:32:41.828Z,16.53
2017-07-05T03:33:42.406Z,16.47
2017-07-05T03:34:42.985Z,16.47
2017-07-05T03:35:43.562Z,16.24
2017-07-05T03:36:44.140Z,16.17
2017-07-05T03:37:44.717Z,16.10
2017-07-05T03:38:45.294Z,15.91
2017-07-05T03:39:45.872Z,15.77
2017-07-05T03:40:46.452Z,15.79
2017-07-05T03:41:47.033Z,15.79
2017-07-05T03:42:47.608Z,15.86
2017-07-05T03:43:48.186Z,15.95
2017-07-05T03:44:48.764Z,15.92
2017-07-05T03:45:49.341Z,15.86
2017-07-05T03:46:49.930Z,15.94
2017-07-05T03:47:50.507Z,15.95
2017-07-05T03:48:51.089Z,15.94
2017-07-05T03:49:51.662Z,16.08
2017-07-05T03:50:52.241Z,16.08
2017-07-05T03:51:52.829Z,16.13
2017-07-05T03:52:53.407Z,16.56
2017-07-05T03:53:53.986Z,16.74
2017-07-05T03:54:54.564Z,16.75
2017-07-05T03:55:55.142Z,16.46
2017-07-05T03:56:55.719Z,16.36
2017-07-05T03:57:56.297Z,16.38
2017-07-05T03:58:56.873Z,16.43
2017-07-05T03:59:57.452Z,16.64
2017-07-05T04:00:58.035Z,16.93
2017-07-05T04:01:58.608Z,16.69
2017-07-05T04:02:59.198Z,16.71
2017-07-05T04:03:59.778Z,16.49
2017-07-05T04:05:00.358Z,16.47
2017-07-05T04:06:00.936Z,16.41
2017-07-05T04:07:01.514Z,16.49
2017-07-05T04:08:02.094Z,16.50
2017-07-05T04:09:02.675Z,16.64
2017-07-05T04:10:03.253Z,16.84
2017-07-05T04:11:03.831Z,16.86
2017-07-05T04:12:04.410Z,16.81
2017-07-05T04:13:04.990Z,16.79
2017-07-05T04:14:05.571Z,16.69
2017-07-05T04:15:06.150Z,16.74
2017-07-05T04:16:06.729Z,16.57
2017-07-05T04:17:07.307Z,16.71
2017-07-05T04:18:07.888Z,16.79
2017-07-05T04:19:08.466Z,16.61
2017-07-05T04:20:09.057Z,16.66
2017-07-05T04:21:09.647Z,16.71
2017-07-05T04:22:10.226Z,16.71
2017-07-05T04:23:10.806Z,16.43
2017-07-05T04:24:11.386Z,16.38
2017-07-05T04:25:11.964Z,16.26
2017-07-05T04:26:12.542Z,16.21
2017-07-05T04:27:13.122Z,16.41
2017-07-05T04:28:13.701Z,16.51
2017-07-05T04:29:14.280Z,16.51
2017-07-05T04:30:14.860Z,16.32
2017-07-05T04:31:15.451Z,16.17
2017-07-05T04:32:16.034Z,16.26
2017-07-05T04:33:16.610Z,16.26
2017-07-05T04:34:17.189Z,16.43
2017-07-05T04:35:17.781Z,16.51
2017-07-05T04:36:18.358Z,16.12
2017-07-05T04:37:18.944Z,15.98
2017-07-05T04:38:19.531Z,15.72
2017-07-05T04:39:20.112Z,15.84
2017-07-05T04:40:20.694Z,15.90
2017-07-05T04:41:21.273Z,15.82
2017-07-05T04:42:21.852Z,15.97
2017-07-05T04:43:22.433Z,16.12
2017-07-05T04:44:23.012Z,16.26
2017-07-05T04:45:23.595Z,16.29
2017-07-05T04:46:24.173Z,16.36
2017-07-05T04:47:24.753Z,16.31
2017-07-05T04:48:25.335Z,16.17
2017-07-05T04:49:25.914Z,16.31
2017-07-05T04:50:26.493Z,16.01
2017-07-05T04:51:27.075Z,16.23
2017-07-05T04:52:27.655Z,16.20
2017-07-05T04:53:28.237Z,16.08
2017-07-05T04:54:28.815Z,16.12
2017-07-05T04:55:29.395Z,16.26
2017-07-05T04:56:29.976Z,16.29
2017-07-05T04:57:30.556Z,16.32
2017-07-05T04:58:31.135Z,16.26
2017-07-05T04:59:31.717Z,16.17
2017-07-05T05:00:32.296Z,16.16
2017-07-05T05:01:32.877Z,16.35
2017-07-05T05:02:33.457Z,16.35
2017-07-05T05:03:34.037Z,16.38
2017-07-05T05:04:34.618Z,16.43
2017-07-05T05:05:35.201Z,16.71
2017-07-05T05:06:35.777Z,16.58
2017-07-05T05:07:36.360Z,16.38
2017-07-05T05:08:36.940Z,16.35
2017-07-05T05:09:37.519Z,16.51
2017-07-05T05:10:38.101Z,16.54
2017-07-05T05:11:38.680Z,16.72
2017-07-05T05:12:39.261Z,16.76
2017-07-05T05:13:39.841Z,16.79
2017-07-05T05:14:40.421Z,16.86
2017-07-05T05:15:41.003Z,16.90
2017-07-05T05:16:41.583Z,16.93
2017-07-05T05:17:42.162Z,17.02
2017-07-05T05:18:42.742Z,17.23
2017-07-05T05:19:43.322Z,17.27
2017-07-05T05:20:43.903Z,17.24
2017-07-05T05:21:44.482Z,17.29
2017-07-05T05:22:45.064Z,17.24
2017-07-05T05:23:45.645Z,17.20
2017-07-05T05:24:46.225Z,17.45
2017-07-05T05:25:46.804Z,17.33
2017-07-05T05:26:47.385Z,17.30
2017-07-05T05:27:47.964Z,17.14
2017-07-05T05:28:48.546Z,17.26
2017-07-05T05:29:49.137Z,17.27
2017-07-05T05:30:49.718Z,17.01
2017-07-05T05:31:50.296Z,17.30
2017-07-05T05:32:50.879Z,17.36
2017-07-05T05:33:51.471Z,17.41
2017-07-05T05:34:52.052Z,17.27
2017-07-05T05:35:52.632Z,17.49
2017-07-05T05:36:53.212Z,17.46
2017-07-05T05:37:53.793Z,17.14
2017-07-05T05:38:54.375Z,17.29
2017-07-05T05:39:54.954Z,17.16
2017-07-05T05:40:55.536Z,17.30
2017-07-05T05:41:56.114Z,17.56
2017-07-05T05:42:56.695Z,17.67
2017-07-05T05:43:57.277Z,17.90
2017-07-05T05:44:57.869Z,17.79
2017-07-05T05:45:58.448Z,17.70
2017-07-05T05:46:59.028Z,17.94
2017-07-05T05:47:59.612Z,17.86
2017-07-05T05:49:00.189Z,17.79
2017-07-05T05:50:00.772Z,18.13
2017-07-05T05:51:01.352Z,18.10
2017-07-05T05:52:01.933Z,17.76
2017-07-05T05:53:02.514Z,17.78
2017-07-05T05:54:03.093Z,17.98
2017-07-05T05:55:03.674Z,18.11
2017-07-05T05:56:04.256Z,18.23
2017-07-05T05:57:04.838Z,18.49
2017-07-05T05:58:05.426Z,18.25
2017-07-05T05:59:06.008Z,18.07
2017-07-05T06:00:06.590Z,18.13
2017-07-05T06:01:07.169Z,18.19
2017-07-05T06:02:07.749Z,18.11
2017-07-05T06:03:08.330Z,18.10
2017-07-05T06:04:08.913Z,18.10
2017-07-05T06:05:09.497Z,17.94
2017-07-05T06:06:10.075Z,18.15
2017-07-05T06:07:10.669Z,18.19
2017-07-05T06:08:11.246Z,18.18
2017-07-05T06:09:11.839Z,18.38
2017-07-05T06:10:12.420Z,18.53
2017-07-05T06:11:13.002Z,18.60
2017-07-05T06:12:13.581Z,18.49
2017-07-05T06:13:14.173Z,18.18
2017-07-05T06:14:14.756Z,18.23
2017-07-05T06:15:15.350Z,18.56
2017-07-05T06:16:15.931Z,18.55
2017-07-05T06:17:16.512Z,18.43
2017-07-05T06:18:17.094Z,18.44
2017-07-05T06:19:17.675Z,18.55
2017-07-05T06:20:18.270Z,18.45
2017-07-05T06:21:18.851Z,18.41
2017-07-05T06:22:19.431Z,18.26
2017-07-05T06:23:20.011Z,18.37
2017-07-05T06:24:20.605Z,18.63
2017-07-05T06:25:21.185Z,18.81
2017-07-05T06:26:21.766Z,18.75
2017-07-05T06:27:22.348Z,18.84
2017-07-05T06:28:22.929Z,18.66
2017-07-05T06:29:23.512Z,18.92
2017-07-05T06:30:24.093Z,18.99
2017-07-05T06:31:24.674Z,19.22
2017-07-05T06:32:25.258Z,19.22
2017-07-05T06:33:25.836Z,19.18
2017-07-05T06:34:26.419Z,19.41
2017-07-05T06:35:27.002Z,19.27
2017-07-05T06:36:27.583Z,19.41
2017-07-05T06:37:28.165Z,19.52
2017-07-05T06:38:28.747Z,19.63
2017-07-05T06:39:29.327Z,19.82
2017-07-05T06:40:29.908Z,19.58
2017-07-05T06:41:30.488Z,19.41
2017-07-05T06:42:31.071Z,19.40
2017-07-05T06:43:31.655Z,19.56
2017-07-05T06:44:32.246Z,19.37
2017-07-05T06:45:32.828Z,19.62
2017-07-05T06:46:33.408Z,19.29
2017-07-05T06:47:33.992Z,19.39
2017-07-05T06:48:34.574Z,19.56
2017-07-05T06:49:35.157Z,19.55
2017-07-05T06:50:35.749Z,19.63
2017-07-05T06:51:36.330Z,19.59
2017-07-05T06:52:36.909Z,19.54
2017-07-05T06:53:37.494Z,19.63
2017-07-05T06:54:38.074Z,19.56
2017-07-05T06:55:38.655Z,19.74
2017-07-05T06:56:39.236Z,19.79
2017-07-05T06:57:39.818Z,19.74
2017-07-05T06:58:40.402Z,19.81
2017-07-05T06:59:40.983Z,19.71
2017-07-05T07:00:41.564Z,19.45
2017-07-05T07:01:42.147Z,19.63
2017-07-05T07:02:42.727Z,19.74
2017-07-05T07:03:43.310Z,20.06
2017-07-05T07:04:43.892Z,20.09
2017-07-05T07:05:44.474Z,20.09
2017-07-05T07:06:45.058Z,20.10
2017-07-05T07:07:45.639Z,20.31
2017-07-05T07:08:46.221Z,20.29
2017-07-05T07:09:46.805Z,20.58
2017-07-05T07:10:47.386Z,20.69
2017-07-05T07:11:47.966Z,20.85
2017-07-05T07:12:48.547Z,20.87
2017-07-05T07:13:49.130Z,20.82
2017-07-05T07:14:49.713Z,20.72
2017-07-05T07:15:50.294Z,20.48
2017-07-05T07:16:50.875Z,20.60
2017-07-05T07:17:51.457Z,21.03
2017-07-05T07:18:52.040Z,21.12
2017-07-05T07:19:52.622Z,21.15
2017-07-05T07:20:53.204Z,21.22
2017-07-05T07:21:53.799Z,21.30
2017-07-05T07:22:54.390Z,21.18
2017-07-05T07:23:54.974Z,20.90
2017-07-05T07:24:55.554Z,21.42
2017-07-05T07:25:56.137Z,21.66
2017-07-05T07:26:56.721Z,21.87
2017-07-05T07:27:57.303Z,22.04
2017-07-05T07:28:57.884Z,22.15
2017-07-05T07:29:58.468Z,22.20
2017-07-05T07:30:59.050Z,22.25
2017-07-05T07:31:59.633Z,22.08
2017-07-05T07:33:00.214Z,21.82
2017-07-05T07:34:00.797Z,22.13
2017-07-05T07:35:01.380Z,22.22
2017-07-05T07:36:01.962Z,22.18
2017-07-05T07:37:02.545Z,22.04
2017-07-05T07:38:03.129Z,21.70
2017-07-05T07:39:03.712Z,21.43
2017-07-05T07:40:04.296Z,21.64
2017-07-05T07:41:04.879Z,21.14
2017-07-05T07:42:05.460Z,21.22
2017-07-05T07:43:06.048Z,21.30
2017-07-05T07:44:06.628Z,21.40
2017-07-05T07:45:07.210Z,21.75
2017-07-05T07:46:07.794Z,21.79
2017-07-05T07:47:08.377Z,21.72
2017-07-05T07:48:08.959Z,21.83
2017-07-05T07:49:09.540Z,21.82
2017-07-05T07:50:10.125Z,21.92
2017-07-05T07:51:10.710Z,21.58
2017-07-05T07:52:11.293Z,21.20
2017-07-05T07:53:11.874Z,21.51
2017-07-05T07:54:12.458Z,21.32
2017-07-05T07:55:13.043Z,21.20
2017-07-05T07:56:13.637Z,21.33
2017-07-05T07:57:14.220Z,21.36
2017-07-05T07:58:14.800Z,21.35
2017-07-05T07:59:15.385Z,21.32
2017-07-05T08:00:15.972Z,21.39
2017-07-05T08:01:16.551Z,21.51
2017-07-05T08:02:17.132Z,21.69
2017-07-05T08:03:17.714Z,21.60
2017-07-05T08:04:18.297Z,21.48
2017-07-05T08:05:18.887Z,21.48
2017-07-05T08:06:19.463Z,21.77
2017-07-05T08:07:20.045Z,22.07
2017-07-05T08:08:20.629Z,22.39
2017-07-05T08:09:21.210Z,22.51
2017-07-05T08:10:21.794Z,22.07
2017-07-05T08:11:22.375Z,22.35
2017-07-05T08:12:22.959Z,21.99
2017-07-05T08:13:23.595Z,22.11
2017-07-05T08:14:24.128Z,22.20
2017-07-05T08:15:24.710Z,21.76
2017-07-05T08:16:25.293Z,21.70
2017-07-05T08:17:25.875Z,21.51
2017-07-05T08:18:26.459Z,21.75
2017-07-05T08:19:27.042Z,21.70
2017-07-05T08:20:27.625Z,22.08
2017-07-05T08:21:28.212Z,22.22
2017-07-05T08:22:28.793Z,22.48
2017-07-05T08:23:29.377Z,22.15
2017-07-05T08:24:29.981Z,22.14
2017-07-05T08:25:30.565Z,22.14
2017-07-05T08:26:31.148Z,22.29
2017-07-05T08:27:31.733Z,22.75
2017-07-05T08:28:32.317Z,22.91
2017-07-05T08:29:32.899Z,22.54
2017-07-05T08:30:33.481Z,22.33
2017-07-05T08:31:34.065Z,22.36
2017-07-05T08:32:34.648Z,22.50
2017-07-05T08:33:35.243Z,22.72
2017-07-05T08:34:35.827Z,22.70
2017-07-05T08:35:36.410Z,23.02
2017-07-05T08:36:36.993Z,22.88
2017-07-05T08:37:37.577Z,23.03
2017-07-05T08:38:38.160Z,22.87
2017-07-05T08:39:38.743Z,23.03
2017-07-05T08:40:39.338Z,23.02
2017-07-05T08:41:39.921Z,22.81
2017-07-05T08:42:40.505Z,22.91
2017-07-05T08:43:41.091Z,22.83
2017-07-05T08:44:41.673Z,23.09
2017-07-05T08:45:42.255Z,23.06
2017-07-05T08:46:42.838Z,23.00
2017-07-05T08:47:43.422Z,22.57
2017-07-05T08:48:44.012Z,22.66
2017-07-05T08:49:44.590Z,22.48
2017-07-05T08:50:45.173Z,22.45
2017-07-05T08:51:45.767Z,22.55
2017-07-05T08:52:46.350Z,22.72
2017-07-05T08:53:46.934Z,22.93
2017-07-05T08:54:47.520Z,22.99
2017-07-05T08:55:48.102Z,22.91
2017-07-05T08:56:48.686Z,23.12
2017-07-05T08:57:49.270Z,23.05
2017-07-05T08:58:49.853Z,23.20
2017-07-05T08:59:50.436Z,23.34
2017-07-05T09:00:51.020Z,23.40
2017-07-05T09:01:51.605Z,23.51
2017-07-05T09:02:52.192Z,23.66
2017-07-05T09:03:52.771Z,23.56
2017-07-05T09:04:53.368Z,23.59
2017-07-05T09:05:53.963Z,23.80
2017-07-05T09:06:54.548Z,23.50
2017-07-05T09:07:55.130Z,23.62
2017-07-05T09:08:55.715Z,23.55
2017-07-05T09:09:56.301Z,23.08
2017-07-05T09:10:56.896Z,23.50
2017-07-05T09:11:57.478Z,23.18
2017-07-05T09:12:58.060Z,23.34
2017-07-05T09:13:58.680Z,23.55
2017-07-05T09:14:59.274Z,23.84
2017-07-05T09:15:59.859Z,23.63
2017-07-05T09:17:00.445Z,23.50
2017-07-05T09:18:01.026Z,23.61
2017-07-05T09:19:01.614Z,23.32
2017-07-05T09:20:02.195Z,23.34
2017-07-05T09:21:02.780Z,23.28
2017-07-05T09:22:03.365Z,23.23
2017-07-05T09:23:03.947Z,23.00
2017-07-05T09:24:04.531Z,23.51
2017-07-05T09:25:05.116Z,23.46
2017-07-05T09:26:05.704Z,23.61
2017-07-05T09:27:06.283Z,23.56
2017-07-05T09:28:06.866Z,23.68
2017-07-05T09:29:07.450Z,23.39
2017-07-05T09:30:08.037Z,23.69
2017-07-05T09:31:08.620Z,23.81
2017-07-05T09:32:09.206Z,23.76
2017-07-05T09:33:09.789Z,23.80
2017-07-05T09:34:10.372Z,23.91
2017-07-05T09:35:10.957Z,23.63
2017-07-05T09:36:11.540Z,24.02
2017-07-05T09:37:12.124Z,23.78
2017-07-05T09:38:12.709Z,23.62
2017-07-05T09:39:13.295Z,23.71
2017-07-05T09:40:13.876Z,23.55
2017-07-05T09:41:14.461Z,23.28
2017-07-05T09:42:15.046Z,23.50
2017-07-05T09:43:15.630Z,24.13
2017-07-05T09:44:16.215Z,24.70
2017-07-05T09:45:16.800Z,25.01
2017-07-05T09:46:17.384Z,25.08
2017-07-05T09:47:17.967Z,24.48
2017-07-05T09:48:18.551Z,24.40
2017-07-05T09:49:19.140Z,24.66
2017-07-05T09:50:19.721Z,24.80
2017-07-05T09:51:20.309Z,24.32
2017-07-05T09:52:20.891Z,24.33
2017-07-05T09:53:21.486Z,24.77
2017-07-05T09:54:22.071Z,24.11
2017-07-05T09:55:22.657Z,24.01
2017-07-05T09:56:23.240Z,23.80
2017-07-05T09:57:23.826Z,24.10
2017-07-05T09:58:24.413Z,24.73
2017-07-05T09:59:24.997Z,24.28
2017-07-05T10:00:25.582Z,24.18
2017-07-05T10:01:26.168Z,24.81
2017-07-05T10:02:26.750Z,24.78
2017-07-05T10:03:27.334Z,24.23
2017-07-05T10:04:27.919Z,24.14
2017-07-05T10:05:28.502Z,24.24
2017-07-05T10:06:29.090Z,24.36
2017-07-05T10:07:29.670Z,24.55
2017-07-05T10:08:30.266Z,24.36
2017-07-05T10:09:30.853Z,24.16
2017-07-05T10:10:31.436Z,24.38
2017-07-05T10:11:32.021Z,24.74
2017-07-05T10:12:32.606Z,24.69
2017-07-05T10:13:33.192Z,24.74
2017-07-05T10:14:33.792Z,24.54
2017-07-05T10:15:34.374Z,24.29
2017-07-05T10:16:34.966Z,24.40
2017-07-05T10:17:35.543Z,24.50
2017-07-05T10:18:36.130Z,24.80
2017-07-05T10:19:36.718Z,24.98
2017-07-05T10:20:37.299Z,24.63
2017-07-05T10:21:37.883Z,24.17
2017-07-05T10:22:38.471Z,24.24
2017-07-05T10:23:39.055Z,24.58
2017-07-05T10:24:39.640Z,24.89
2017-07-05T10:25:40.225Z,25.53
2017-07-05T10:26:40.815Z,25.55
2017-07-05T10:27:41.395Z,25.47
2017-07-05T10:28:41.981Z,24.95
2017-07-05T10:29:42.565Z,24.73
2017-07-05T10:30:43.150Z,24.58
2017-07-05T10:31:43.733Z,24.84
2017-07-05T10:32:44.318Z,25.31
2017-07-05T10:33:44.904Z,25.10
2017-07-05T10:34:45.488Z,25.17
2017-07-05T10:35:46.072Z,24.99
2017-07-05T10:36:46.658Z,24.65
2017-07-05T10:37:47.241Z,24.33
2017-07-05T10:38:47.826Z,24.50
2017-07-05T10:39:48.410Z,24.17
2017-07-05T10:40:48.995Z,24.21
2017-07-05T10:41:49.580Z,24.28
2017-07-05T10:42:50.165Z,24.40
2017-07-05T10:43:50.751Z,24.76
2017-07-05T10:44:51.337Z,24.96
2017-07-05T10:45:51.921Z,25.16
2017-07-05T10:46:52.506Z,25.07
2017-07-05T10:47:53.094Z,25.08
2017-07-05T10:48:53.678Z,24.93
2017-07-05T10:49:54.262Z,25.36
2017-07-05T10:50:54.847Z,25.35
2017-07-05T10:51:55.434Z,25.83
2017-07-05T10:52:56.019Z,25.55
2017-07-05T10:53:56.604Z,25.46
2017-07-05T10:54:57.190Z,25.21
2017-07-05T10:55:57.778Z,25.32
2017-07-05T10:56:58.361Z,25.58
2017-07-05T10:57:58.946Z,25.47
2017-07-05T10:58:59.532Z,25.25
2017-07-05T11:00:00.117Z,25.47
2017-07-05T11:01:00.712Z,25.25
2017-07-05T11:02:01.308Z,25.23
2017-07-05T11:03:01.895Z,25.78
2017-07-05T11:04:02.478Z,25.46
2017-07-05T11:05:03.064Z,25.35
2017-07-05T11:06:03.650Z,24.96
2017-07-05T11:07:04.233Z,25.06
2017-07-05T11:08:04.818Z,25.21
2017-07-05T11:09:05.402Z,25.01
2017-07-05T11:10:05.997Z,24.57
2017-07-05T11:11:06.581Z,24.48
2017-07-05T11:12:07.168Z,24.68
2017-07-05T11:13:07.751Z,24.39
2017-07-05T11:14:08.334Z,24.61
2017-07-05T11:15:08.919Z,24.91
2017-07-05T11:16:09.505Z,24.40
2017-07-05T11:17:10.093Z,24.48
2017-07-05T11:18:10.678Z,24.86
2017-07-05T11:19:11.263Z,25.21
2017-07-05T11:20:11.852Z,25.21
2017-07-05T11:21:12.439Z,25.84
2017-07-05T11:22:13.022Z,25.73
2017-07-05T11:23:13.609Z,25.85
2017-07-05T11:24:14.194Z,25.58
2017-07-05T11:25:14.779Z,25.08
2017-07-05T11:26:15.368Z,25.10
2017-07-05T11:27:15.952Z,25.53
2017-07-05T11:28:16.537Z,25.63
2017-07-05T11:29:17.125Z,25.73
2017-07-05T11:30:17.709Z,26.28
2017-07-05T11:31:18.294Z,25.77
2017-07-05T11:32:18.882Z,25.59
2017-07-05T11:33:19.467Z,25.25
2017-07-05T11:34:20.051Z,25.51
2017-07-05T11:35:20.638Z,25.43
2017-07-05T11:36:21.221Z,25.47
2017-07-05T11:37:21.806Z,25.66
2017-07-05T11:38:22.390Z,25.60
2017-07-05T11:39:22.974Z,25.98
2017-07-05T11:40:23.560Z,26.13
2017-07-05T11:41:24.145Z,26.25
2017-07-05T11:42:24.730Z,25.50
2017-07-05T11:43:25.326Z,24.81
2017-07-05T11:44:25.912Z,24.73
2017-07-05T11:45:26.495Z,25.01
2017-07-05T11:46:27.092Z,24.66
2017-07-05T11:47:27.675Z,24.68
2017-07-05T11:48:28.261Z,24.89
2017-07-05T11:49:28.845Z,24.69
2017-07-05T11:50:29.429Z,24.73
2017-07-05T11:51:30.013Z,24.89
2017-07-05T11:52:30.600Z,25.08
2017-07-05T11:53:31.184Z,25.11
2017-07-05T11:54:31.767Z,24.96
2017-07-05T11:55:32.354Z,24.78
2017-07-05T11:56:32.940Z,24.89
2017-07-05T11:57:33.525Z,25.11
2017-07-05T11:58:34.111Z,25.29
2017-07-05T11:59:34.696Z,25.65
2017-07-05T12:00:35.282Z,25.40
2017-07-05T12:01:35.866Z,25.22
2017-07-05T12:02:36.463Z,25.43
2017-07-05T12:03:37.049Z,25.32
2017-07-05T12:04:37.637Z,25.47
2017-07-05T12:05:38.221Z,25.55
2017-07-05T12:06:38.811Z,25.68
2017-07-05T12:07:39.394Z,25.80
2017-07-05T12:08:39.980Z,25.70
2017-07-05T12:09:40.565Z,25.66
2017-07-05T12:10:41.151Z,26.03
2017-07-05T12:11:41.737Z,25.88
2017-07-05T12:12:42.326Z,26.10
2017-07-05T12:13:42.909Z,26.03
2017-07-05T12:14:43.494Z,26.26
2017-07-05T12:15:44.091Z,26.26
2017-07-05T12:16:44.678Z,25.80
2017-07-05T12:17:45.269Z,26.25
2017-07-05T12:18:45.855Z,26.25
2017-07-05T12:19:46.439Z,26.26
2017-07-05T12:20:47.036Z,26.65
2017-07-05T12:21:47.623Z,26.45
2017-07-05T12:22:48.204Z,26.63
2017-07-05T12:23:48.790Z,26.65
2017-07-05T12:24:49.385Z,26.62
2017-07-05T12:25:49.970Z,26.02
2017-07-05T12:26:50.556Z,26.02
2017-07-05T12:27:51.139Z,25.73
2017-07-05T12:28:51.726Z,26.16
2017-07-05T12:29:52.313Z,26.41
2017-07-05T12:30:52.899Z,26.62
2017-07-05T12:31:53.489Z,26.85
2017-07-05T12:32:54.072Z,26.89
2017-07-05T12:33:54.658Z,26.92
2017-07-05T12:34:55.247Z,26.89
2017-07-05T12:35:55.830Z,26.74
2017-07-05T12:36:56.428Z,26.62
2017-07-05T12:37:57.016Z,26.52
2017-07-05T12:38:57.604Z,27.05
2017-07-05T12:39:58.190Z,26.92
2017-07-05T12:40:58.781Z,26.66
2017-07-05T12:41:59.364Z,26.77
2017-07-05T12:42:59.949Z,27.05
2017-07-05T12:44:00.536Z,26.96
2017-07-05T12:45:01.123Z,27.29
2017-07-05T12:46:01.709Z,27.02
2017-07-05T12:47:02.295Z,26.89
2017-07-05T12:48:02.882Z,26.36
2017-07-05T12:49:03.472Z,26.62
2017-07-05T12:50:04.056Z,26.92
2017-07-05T12:51:04.642Z,26.92
2017-07-05T12:52:05.228Z,26.89
2017-07-05T12:53:05.815Z,26.73
2017-07-05T12:54:06.403Z,26.95
2017-07-05T12:55:06.991Z,27.00
2017-07-05T12:56:07.577Z,27.11
2017-07-05T12:57:08.176Z,27.00
2017-07-05T12:58:08.763Z,26.25
2017-07-05T12:59:09.350Z,25.62
2017-07-05T13:00:09.948Z,25.65